createdAt,value
2022-08-14T00:00:36.879Z,21.02
2022-08-14T00:03:40.803Z,20.99
2022-08-14T00:06:43.045Z,20.96
2022-08-14T00:09:55.457Z,20.94
2022-08-14T00:13:06.822Z,20.92
2022-08-14T00:16:14.152Z,20.91
2022-08-14T00:19:35.741Z,20.90
2022-08-14T00:22:56.207Z,20.87
2022-08-14T00:26:06.455Z,20.83
2022-08-14T00:29:10.052Z,20.81
2022-08-14T00:33:01.689Z,20.80
2022-08-14T00:36:37.694Z,20.77
2022-08-14T00:38:57.037Z,20.76
2022-08-14T00:41:58.754Z,20.74
2022-08-14T00:45:00.360Z,20.75
2022-08-14T00:48:02.476Z,20.76
2022-08-14T00:51:06.753Z,20.77
2022-08-14T00:54:16.703Z,20.78
2022-08-14T00:57:29.562Z,20.77
2022-08-14T01:00:37.385Z,20.74
2022-08-14T01:03:52.817Z,20.69
2022-08-14T01:06:55.548Z,20.63
2022-08-14T01:09:59.133Z,20.59
2022-08-14T01:13:01.457Z,20.55
2022-08-14T01:16:08.001Z,20.51
2022-08-14T01:19:28.713Z,20.47
2022-08-14T01:22:30.329Z,20.47
2022-08-14T01:25:33.272Z,20.48
2022-08-14T01:28:56.174Z,20.48
2022-08-14T01:32:01.797Z,20.51
2022-08-14T01:35:19.830Z,20.51
2022-08-14T01:38:34.404Z,20.52
2022-08-14T01:41:40.405Z,20.52
2022-08-14T01:44:43.165Z,20.51
2022-08-14T01:47:51.553Z,20.48
2022-08-14T01:50:53.119Z,20.44
2022-08-14T01:54:22.137Z,20.41
2022-08-14T01:57:24.782Z,20.38
2022-08-14T02:00:38.959Z,20.37
2022-08-14T02:03:41.288Z,20.36
2022-08-14T02:06:54.184Z,20.34
2022-08-14T02:09:56.213Z,20.30
2022-08-14T02:12:59.583Z,20.24
2022-08-14T02:16:01.255Z,20.19
2022-08-14T02:19:27.401Z,20.15
2022-08-14T02:22:33.982Z,20.13
2022-08-14T02:25:36.132Z,20.12
2022-08-14T02:28:57.547Z,20.07
2022-08-14T02:32:01.036Z,20.00
2022-08-14T02:35:06.836Z,19.97
2022-08-14T02:38:11.820Z,19.91
2022-08-14T02:41:30.346Z,19.84
2022-08-14T02:44:40.325Z,19.81
2022-08-14T02:47:41.940Z,19.74
2022-08-14T02:50:51.372Z,19.67
2022-08-14T02:53:54.856Z,19.60
2022-08-14T02:57:16.737Z,19.57
2022-08-14T03:00:19.916Z,19.58
2022-08-14T03:03:23.930Z,19.57
2022-08-14T03:06:49.030Z,19.57
2022-08-14T03:10:25.205Z,19.60
2022-08-14T03:13:13.809Z,19.61
2022-08-14T03:16:26.878Z,19.62
2022-08-14T03:19:28.769Z,19.62
2022-08-14T03:22:30.408Z,19.60
2022-08-14T03:25:37.378Z,19.60
2022-08-14T03:28:41.376Z,19.58
2022-08-14T03:31:44.137Z,19.57
2022-08-14T03:34:55.468Z,19.56
2022-08-14T03:39:11.905Z,19.54
2022-08-14T03:41:33.389Z,19.50
2022-08-14T03:45:19.257Z,19.49
2022-08-14T03:47:58.655Z,19.46
2022-08-14T03:51:01.438Z,19.44
2022-08-14T03:54:08.345Z,19.45
2022-08-14T03:57:12.623Z,19.46
2022-08-14T04:00:43.108Z,19.50
2022-08-14T04:03:37.397Z,19.50
2022-08-14T04:06:45.224Z,19.50
2022-08-14T04:09:50.285Z,19.49
2022-08-14T04:12:55.797Z,19.44
2022-08-14T04:16:02.447Z,19.40
2022-08-14T04:19:08.646Z,19.33
2022-08-14T04:22:10.185Z,19.28
2022-08-14T04:25:13.319Z,19.27
2022-08-14T04:29:07.604Z,19.25
2022-08-14T04:33:00.412Z,19.21
2022-08-14T04:35:01.669Z,19.18
2022-08-14T04:38:37.183Z,19.14
2022-08-14T04:41:58.361Z,19.09
2022-08-14T04:45:01.293Z,19.03
2022-08-14T04:48:39.268Z,18.98
2022-08-14T04:51:46.990Z,18.92
2022-08-14T04:54:57.947Z,18.91
2022-08-14T04:57:59.636Z,18.92
2022-08-14T05:01:12.830Z,18.93
2022-08-14T05:04:21.794Z,18.91
2022-08-14T05:07:46.942Z,18.89
2022-08-14T05:10:52.000Z,18.88
2022-08-14T05:14:34.456Z,18.87
2022-08-14T05:17:18.300Z,18.87
2022-08-14T05:21:57.919Z,18.89
2022-08-14T05:23:42.274Z,18.96
2022-08-14T05:26:48.058Z,19.05
2022-08-14T05:29:50.482Z,19.12
2022-08-14T05:32:52.342Z,19.21
2022-08-14T05:36:01.158Z,19.29
2022-08-14T05:39:04.321Z,19.39
2022-08-14T05:42:10.181Z,19.49
2022-08-14T05:45:24.157Z,19.60
2022-08-14T05:48:33.701Z,19.70
2022-08-14T05:51:38.796Z,19.78
2022-08-14T05:54:40.428Z,19.87
2022-08-14T05:57:54.469Z,19.94
2022-08-14T06:00:57.485Z,19.97
2022-08-14T06:03:59.200Z,20.01
2022-08-14T06:07:00.801Z,20.03
2022-08-14T06:10:06.217Z,20.05
2022-08-14T06:13:07.950Z,20.11
2022-08-14T06:16:11.205Z,20.17
2022-08-14T06:19:15.548Z,20.23
2022-08-14T06:22:20.494Z,20.27
2022-08-14T06:25:25.076Z,20.32
2022-08-14T06:28:28.398Z,20.35
2022-08-14T06:31:30.306Z,20.40
2022-08-14T06:35:10.329Z,20.45
2022-08-14T06:37:56.829Z,20.48
2022-08-14T06:40:58.712Z,20.51
2022-08-14T06:44:00.326Z,20.56
2022-08-14T06:47:05.389Z,20.62
2022-08-14T06:50:10.456Z,20.73
2022-08-14T06:53:14.678Z,20.83
2022-08-14T06:56:16.736Z,20.92
2022-08-14T06:59:19.637Z,21.02
2022-08-14T07:02:43.584Z,21.09
2022-08-14T07:05:55.922Z,21.19
2022-08-14T07:08:59.958Z,21.30
2022-08-14T07:12:01.729Z,21.37
2022-08-14T07:15:05.067Z,21.44
2022-08-14T07:18:08.839Z,21.49
2022-08-14T07:21:10.771Z,21.54
2022-08-14T07:24:21.770Z,21.61
2022-08-14T07:27:28.266Z,21.67
2022-08-14T07:30:35.506Z,21.74
2022-08-14T07:33:37.040Z,21.83
2022-08-14T07:36:38.618Z,21.92
2022-08-14T07:40:01.650Z,22.08
2022-08-14T07:43:14.399Z,22.13
2022-08-14T07:46:21.399Z,22.16
2022-08-14T07:49:33.210Z,22.24
2022-08-14T07:52:35.052Z,22.34
2022-08-14T07:55:37.659Z,22.42
2022-08-14T07:58:51.548Z,22.44
2022-08-14T08:01:53.628Z,22.48
2022-08-14T08:05:00.652Z,22.54
2022-08-14T08:08:03.783Z,22.60
2022-08-14T08:11:14.976Z,22.67
2022-08-14T08:14:18.224Z,22.71
2022-08-14T08:17:20.502Z,22.75
2022-08-14T08:20:27.263Z,22.75
2022-08-14T08:23:40.069Z,22.77
2022-08-14T08:26:45.137Z,22.79
2022-08-14T08:29:50.970Z,22.80
2022-08-14T08:32:55.270Z,22.82
2022-08-14T08:36:03.496Z,22.89
2022-08-14T08:39:17.065Z,22.97
2022-08-14T08:42:31.222Z,23.07
2022-08-14T08:45:39.777Z,23.14
2022-08-14T08:48:53.949Z,23.20
2022-08-14T08:52:04.358Z,23.29
2022-08-14T08:55:06.573Z,23.32
2022-08-14T08:58:20.277Z,23.36
2022-08-14T09:01:33.504Z,23.36
2022-08-14T09:04:45.221Z,23.36
2022-08-14T09:07:56.650Z,23.38
2022-08-14T09:10:59.652Z,23.42
2022-08-14T09:14:02.433Z,23.48
2022-08-14T09:17:07.144Z,23.51
2022-08-14T09:20:11.910Z,23.60
2022-08-14T09:23:16.842Z,23.65
2022-08-14T09:26:21.098Z,23.68
2022-08-14T09:29:23.752Z,23.72
2022-08-14T09:32:59.091Z,23.73
2022-08-14T09:36:18.472Z,23.74
2022-08-14T09:39:55.832Z,23.75
2022-08-14T09:43:07.482Z,23.76
2022-08-14T09:46:09.649Z,23.83
2022-08-14T09:49:16.724Z,23.97
2022-08-14T09:52:23.791Z,24.12
2022-08-14T09:55:42.608Z,24.29
2022-08-14T09:58:47.362Z,24.46
2022-08-14T10:01:53.099Z,24.62
2022-08-14T10:05:10.209Z,24.80
2022-08-14T10:08:26.487Z,24.96
2022-08-14T10:11:37.911Z,25.08
2022-08-14T10:14:45.095Z,25.21
2022-08-14T10:18:08.056Z,25.36
2022-08-14T10:21:18.069Z,25.53
2022-08-14T10:24:37.299Z,25.72
2022-08-14T10:27:39.430Z,25.85
2022-08-14T10:30:42.904Z,25.97
2022-08-14T10:33:50.806Z,26.14
2022-08-14T10:37:04.011Z,26.30
2022-08-14T10:40:37.385Z,26.36
2022-08-14T10:43:42.480Z,26.46
2022-08-14T10:47:39.329Z,26.55
2022-08-14T10:50:15.858Z,26.64
2022-08-14T10:53:29.730Z,26.75
2022-08-14T10:56:35.775Z,26.89
2022-08-14T11:00:14.377Z,27.02
2022-08-14T11:03:35.714Z,27.09
2022-08-14T11:06:53.056Z,27.16
2022-08-14T11:10:04.811Z,27.25
2022-08-14T11:13:07.285Z,27.29
2022-08-14T11:16:09.825Z,27.36
2022-08-14T11:19:13.634Z,27.43
2022-08-14T11:22:55.729Z,27.49
2022-08-14T11:25:53.588Z,27.51
2022-08-14T11:28:57.489Z,27.53
2022-08-14T11:32:02.354Z,27.59
2022-08-14T11:35:04.356Z,27.66
2022-08-14T11:38:08.423Z,27.74
2022-08-14T11:41:11.449Z,27.86
2022-08-14T11:44:13.276Z,28.02
2022-08-14T11:47:20.700Z,28.04
2022-08-14T11:50:37.230Z,28.05
2022-08-14T11:53:42.332Z,28.07
2022-08-14T11:56:46.136Z,28.15
2022-08-14T11:59:47.947Z,28.21
2022-08-14T12:03:02.576Z,28.20
2022-08-14T12:06:28.982Z,28.29
2022-08-14T12:09:38.685Z,28.31
2022-08-14T12:12:45.045Z,28.27
2022-08-14T12:16:06.614Z,28.18
2022-08-14T12:19:12.942Z,28.05
2022-08-14T12:22:29.443Z,27.94
2022-08-14T12:25:34.937Z,27.90
2022-08-14T12:28:59.715Z,27.86
2022-08-14T12:32:06.677Z,27.91
2022-08-14T12:35:11.225Z,28.07
2022-08-14T12:38:19.504Z,28.27
2022-08-14T12:41:28.228Z,28.51
2022-08-14T12:44:42.976Z,28.61
2022-08-14T12:47:45.592Z,28.58
2022-08-14T12:50:53.307Z,28.50
2022-08-14T12:53:59.617Z,28.42
2022-08-14T12:57:08.288Z,28.37
2022-08-14T13:00:22.939Z,28.34
2022-08-14T13:03:27.989Z,28.30
2022-08-14T13:06:29.960Z,28.22
2022-08-14T13:09:36.612Z,28.23
2022-08-14T13:13:02.942Z,28.34
2022-08-14T13:16:05.287Z,28.49
2022-08-14T13:19:24.352Z,28.63
2022-08-14T13:22:33.385Z,28.76
2022-08-14T13:25:37.748Z,28.81
2022-08-14T13:29:02.754Z,28.74
2022-08-14T13:32:05.839Z,28.60
2022-08-14T13:35:11.037Z,28.60
2022-08-14T13:38:25.605Z,28.67
2022-08-14T13:41:36.109Z,28.79
2022-08-14T13:44:42.581Z,28.85
2022-08-14T13:47:46.657Z,28.84
2022-08-14T13:50:55.420Z,28.80
2022-08-14T13:54:10.957Z,28.83
2022-08-14T13:57:17.739Z,28.89
2022-08-14T14:00:32.522Z,28.85
2022-08-14T14:03:38.191Z,28.76
2022-08-14T14:06:40.776Z,28.70
2022-08-14T14:09:52.703Z,28.71
2022-08-14T14:12:56.161Z,28.69
2022-08-14T14:16:03.799Z,28.61
2022-08-14T14:19:09.379Z,28.66
2022-08-14T14:22:13.423Z,28.79
2022-08-14T14:25:45.921Z,28.89
2022-08-14T14:28:57.119Z,28.95
2022-08-14T14:32:00.438Z,28.93
2022-08-14T14:35:02.945Z,28.93
2022-08-14T14:38:07.020Z,28.91
2022-08-14T14:41:10.594Z,28.92
2022-08-14T14:44:15.936Z,28.89
2022-08-14T14:47:22.528Z,28.83
2022-08-14T14:50:25.003Z,28.78
2022-08-14T14:53:28.605Z,28.78
2022-08-14T14:56:47.418Z,28.76
2022-08-14T14:59:53.799Z,28.77
2022-08-14T15:02:57.831Z,28.77
2022-08-14T15:06:02.179Z,28.78
2022-08-14T15:09:08.886Z,28.78
2022-08-14T15:12:27.930Z,28.76
2022-08-14T15:15:37.808Z,28.72
2022-08-14T15:18:46.917Z,28.73
2022-08-14T15:21:51.167Z,28.72
2022-08-14T15:24:53.110Z,28.70
2022-08-14T15:27:56.317Z,28.69
2022-08-14T15:30:59.204Z,28.74
2022-08-14T15:34:43.957Z,28.78
2022-08-14T15:37:42.233Z,28.84
2022-08-14T15:40:44.264Z,28.95
2022-08-14T15:43:54.301Z,29.07
2022-08-14T15:46:59.916Z,29.15
2022-08-14T15:50:08.689Z,29.19
2022-08-14T15:53:12.280Z,29.17
2022-08-14T15:56:20.858Z,29.11
2022-08-14T15:59:58.539Z,28.99
2022-08-14T16:03:00.725Z,28.83
2022-08-14T16:06:11.078Z,28.71
2022-08-14T16:09:17.412Z,28.58
2022-08-14T16:12:20.317Z,28.47
2022-08-14T16:15:45.369Z,28.41
2022-08-14T16:18:59.007Z,28.43
2022-08-14T16:25:34.478Z,28.39
2022-08-14T16:28:37.209Z,28.37
2022-08-14T16:31:39.936Z,28.35
2022-08-14T16:34:49.143Z,28.33
2022-08-14T16:37:56.568Z,28.31
2022-08-14T16:40:25.176Z,28.41
2022-08-14T16:41:23.337Z,28.32
2022-08-14T16:44:41.077Z,28.30
2022-08-14T16:47:47.872Z,28.28
2022-08-14T16:50:52.455Z,28.23
2022-08-14T16:53:54.656Z,28.17
2022-08-14T16:57:12.794Z,28.11
2022-08-14T17:00:43.920Z,28.07
2022-08-14T17:03:53.145Z,28.06
2022-08-14T17:06:57.471Z,28.05
2022-08-14T17:10:09.702Z,28.02
2022-08-14T17:13:59.738Z,27.98
2022-08-14T17:16:56.426Z,27.93
2022-08-14T17:20:02.273Z,27.89
2022-08-14T17:23:11.345Z,27.83
2022-08-14T17:26:45.651Z,27.82
2022-08-14T17:33:23.164Z,27.73
2022-08-14T17:36:26.529Z,27.70
2022-08-14T17:39:40.220Z,27.66
2022-08-14T17:42:55.713Z,27.63
2022-08-14T17:46:04.913Z,27.57
2022-08-14T17:49:16.255Z,27.52
2022-08-14T17:52:34.106Z,27.44
2022-08-14T17:56:01.781Z,27.35
2022-08-14T17:59:05.740Z,27.30
2022-08-14T18:02:09.683Z,27.25
2022-08-14T18:05:23.764Z,27.19
2022-08-14T18:08:43.734Z,27.13
2022-08-14T18:11:46.733Z,27.06
2022-08-14T18:14:52.910Z,26.98
2022-08-14T18:17:58.047Z,26.91
2022-08-14T18:21:42.319Z,26.83
2022-08-14T18:24:29.455Z,26.74
2022-08-14T18:27:42.075Z,26.65
2022-08-14T18:30:58.719Z,26.56
2022-08-14T18:34:32.022Z,26.48
2022-08-14T18:37:36.611Z,26.40
2022-08-14T18:40:40.556Z,26.32
2022-08-14T18:43:58.945Z,26.24
2022-08-14T18:47:15.992Z,26.16
2022-08-14T18:50:27.480Z,26.08
2022-08-14T18:53:59.454Z,26.05
2022-08-14T18:57:03.818Z,26.03
2022-08-14T19:00:32.808Z,26.00
2022-08-14T19:03:36.461Z,25.97
2022-08-14T19:06:55.980Z,25.97
2022-08-14T19:10:03.516Z,26.00
2022-08-14T19:13:12.382Z,26.03
2022-08-14T19:16:22.814Z,26.06
2022-08-14T19:19:38.257Z,26.06
2022-08-14T19:22:41.309Z,26.05
2022-08-14T19:25:54.313Z,26.04
2022-08-14T19:28:56.554Z,26.01
2022-08-14T19:32:02.997Z,25.99
2022-08-14T19:35:49.501Z,25.96
2022-08-14T19:39:00.108Z,25.88
2022-08-14T19:42:03.323Z,25.78
2022-08-14T19:45:15.379Z,25.73
2022-08-14T19:48:16.937Z,25.68
2022-08-14T19:51:18.693Z,25.66
2022-08-14T19:54:34.880Z,25.63
2022-08-14T19:57:36.850Z,25.56
2022-08-14T20:00:52.762Z,25.51
2022-08-14T20:03:59.908Z,25.43
2022-08-14T20:07:06.431Z,25.34
2022-08-14T20:11:08.261Z,25.25
2022-08-14T20:14:10.341Z,25.16
2022-08-14T20:17:19.367Z,25.07
2022-08-14T20:20:30.872Z,25.02
2022-08-14T20:23:43.615Z,24.96
2022-08-14T20:27:34.103Z,24.89
2022-08-14T20:30:37.443Z,24.82
2022-08-14T20:33:48.652Z,24.78
2022-08-14T20:37:00.836Z,24.73
2022-08-14T20:40:23.329Z,24.69
2022-08-14T20:43:52.868Z,24.66
2022-08-14T20:47:00.965Z,24.62
2022-08-14T20:50:21.237Z,24.58
2022-08-14T20:53:28.940Z,24.55
2022-08-14T20:56:41.683Z,24.49
2022-08-14T20:59:57.359Z,24.46
2022-08-14T21:02:59.477Z,24.44
2022-08-14T21:06:17.264Z,24.43
2022-08-14T21:10:03.356Z,24.40
2022-08-14T21:12:55.559Z,24.35
2022-08-14T21:16:33.442Z,24.30
2022-08-14T21:19:33.032Z,24.24
2022-08-14T21:22:37.586Z,24.19
2022-08-14T21:25:42.537Z,24.13
2022-08-14T21:28:46.003Z,24.03
2022-08-14T21:31:55.670Z,23.96
2022-08-14T21:35:16.217Z,23.90
2022-08-14T21:38:20.517Z,23.82
2022-08-14T21:41:42.386Z,23.77
2022-08-14T21:44:53.450Z,23.71
2022-08-14T21:48:02.304Z,23.66
2022-08-14T21:51:54.917Z,23.61
2022-08-14T21:54:49.803Z,23.56
2022-08-14T21:58:51.713Z,23.50
2022-08-14T22:01:23.853Z,23.46
2022-08-14T22:04:33.653Z,23.44
2022-08-14T22:07:38.894Z,23.39
2022-08-14T22:10:44.755Z,23.36
2022-08-14T22:13:48.869Z,23.33
2022-08-14T22:17:02.257Z,23.49
2022-08-14T22:20:16.554Z,23.39
2022-08-14T22:23:18.736Z,23.32
2022-08-14T22:26:21.791Z,23.27
2022-08-14T22:29:23.940Z,23.19
2022-08-14T22:32:55.948Z,23.12
2022-08-14T22:35:56.522Z,23.03
2022-08-14T22:38:58.495Z,22.97
2022-08-14T22:42:02.080Z,22.92
2022-08-14T22:45:22.745Z,22.85
2022-08-14T22:48:25.169Z,22.78
2022-08-14T22:51:32.404Z,22.74
2022-08-14T22:54:51.878Z,22.70
2022-08-14T22:57:55.376Z,22.65
2022-08-14T23:01:01.090Z,22.61
2022-08-14T23:04:04.530Z,22.58
2022-08-14T23:07:21.998Z,22.55
2022-08-14T23:10:31.930Z,22.51
2022-08-14T23:13:39.703Z,22.48
2022-08-14T23:16:42.513Z,22.47
2022-08-14T23:19:44.764Z,22.44
2022-08-14T23:22:51.203Z,22.43
2022-08-14T23:25:59.387Z,22.41
2022-08-14T23:29:03.361Z,22.40
2022-08-14T23:32:06.170Z,22.37
2022-08-14T23:35:27.140Z,22.35
2022-08-14T23:38:30.504Z,22.32
2022-08-14T23:41:46.452Z,22.30
2022-08-14T23:44:55.699Z,22.28
2022-08-14T23:47:59.484Z,22.26
2022-08-14T23:51:02.953Z,22.23
2022-08-14T23:54:05.591Z,22.20
2022-08-14T23:57:30.748Z,22.17
